Time;durP1;ratioP1;P1;durP2;ratioP2;P2;SDS_P1;SDS_P2;PMS_P1;PMS_P2;Temp;Humidity;BMP_temperature;BMP_pressure;BME280_temperature;BME280_humidity;BME280_pressure;Samples;Min_cycle;Max_cycle;Signal;HPM_P1;HPM_P2
2023/07/25 00:00:32;;;;;;;;;;;;;;;28.73;41.19;99101.63;5054399;28;19916;-78
2023/07/25 00:02:58;;;;;;;;;;;;;;;28.74;40.96;99103.22;5054741;28;20397;-77
2023/07/25 00:05:23;;;;;;;;;;;;;;;28.69;41.63;99106.06;5059431;28;19916;-78
2023/07/25 00:07:48;;;;;;;;;;;;;;;28.63;41.69;99107.28;5062956;28;19909;-78
2023/07/25 00:10:14;;;;;;;;;;;;;;;28.60;41.31;99106.00;5054125;28;19943;-77
2023/07/25 00:12:39;;;;;;;;;;;;;;;28.60;41.26;99103.28;5054230;28;19963;-78
2023/07/25 00:15:05;;;;;;;;;;;;;;;28.61;41.56;99104.09;5054193;28;19909;-76
2023/07/25 00:17:30;;;;;;;;;;;;;;;28.59;41.35;99100.88;5054326;28;20356;-76
2023/07/25 00:19:56;;;;;;;;;;;;;;;28.55;40.71;99105.31;5053289;28;19905;-78
2023/07/25 00:22:21;;;;;;;;;;;;;;;28.58;40.73;99107.41;5053548;28;19909;-76
2023/07/25 00:24:46;;;;;;;;;;;;;;;28.59;41.56;99103.59;5053679;28;20389;-78
2023/07/25 00:27:12;;;;;;;;;;;;;;;28.57;41.14;99105.81;5053797;28;20357;-78
2023/07/25 00:29:37;;;;;;;;;;;;;;;28.56;41.38;99109.63;5043384;28;20435;-78
2023/07/25 00:32:02;;;;;;;;;;;;;;;28.56;41.46;99109.63;5041558;28;20366;-77
2023/07/25 00:34:28;;;;;;;;;;;;;;;28.57;40.67;99097.66;5053855;28;19935;-76
2023/07/25 00:36:53;;;;;;;;;;;;;;;28.55;41.33;99100.69;5053695;28;19920;-79
2023/07/25 00:39:18;;;;;;;;;;;;;;;28.51;42.05;99105.13;5053606;28;19908;-78
2023/07/25 00:41:43;;;;;;;;;;;;;;;28.45;41.16;99107.16;5053440;28;20319;-79
2023/07/25 00:44:09;;;;;;;;;;;;;;;28.29;42.33;99118.66;5053442;28;20370;-77
2023/07/25 00:46:34;;;;;;;;;;;;;;;28.10;42.61;99116.81;5053385;28;19908;-78
2023/07/25 00:48:59;;;;;;;;;;;;;;;27.97;41.93;99123.06;5053436;28;19908;-77
2023/07/25 00:51:25;;;;;;;;;;;;;;;27.83;42.36;99122.25;5053477;28;20370;-77
2023/07/25 00:53:51;;;;;;;;;;;;;;;27.66;43.18;99122.88;5053193;28;20469;-77
2023/07/25 00:56:16;;;;;;;;;;;;;;;27.52;42.35;99124.72;5035399;28;19926;-77
2023/07/25 00:58:41;;;;;;;;;;;;;;;27.50;42.46;99126.94;5052958;28;19916;-77
2023/07/25 01:01:07;;;;;;;;;;;;;;;27.33;42.53;99124.78;5053149;28;19948;-77
2023/07/25 01:03:33;;;;;;;;;;;;;;;27.29;42.93;99121.06;5035248;28;19909;-79
2023/07/25 01:06:01;;;;;;;;;;;;;;;27.29;44.69;99125.66;5052997;28;19995;-77
2023/07/25 01:08:26;;;;;;;;;;;;;;;27.25;44.76;99127.38;5053002;28;19909;-78
2023/07/25 01:10:52;;;;;;;;;;;;;;;27.26;45.16;99129.78;5053029;28;19916;-78
2023/07/25 01:13:17;;;;;;;;;;;;;;;27.28;44.91;99135.72;5052807;28;20439;-78
2023/07/25 01:15:42;;;;;;;;;;;;;;;27.32;45.02;99133.19;5034964;28;19942;-79
2023/07/25 01:18:08;;;;;;;;;;;;;;;27.32;44.80;99130.50;5052743;28;19943;-76
2023/07/25 01:20:34;;;;;;;;;;;;;;;27.34;45.04;99133.72;5052974;28;19912;-77
2023/07/25 01:23:00;;;;;;;;;;;;;;;27.33;45.13;99130.19;5052626;28;19935;-77
2023/07/25 01:25:25;;;;;;;;;;;;;;;27.37;45.10;99133.13;5052567;28;20001;-78
2023/07/25 01:27:50;;;;;;;;;;;;;;;27.39;43.66;99130.91;5052780;28;20296;-77
2023/07/25 01:30:15;;;;;;;;;;;;;;;27.36;44.23;99124.19;5052659;28;19964;-78
2023/07/25 01:32:41;;;;;;;;;;;;;;;27.37;44.00;99125.78;5052253;28;19913;-78
2023/07/25 01:35:06;;;;;;;;;;;;;;;27.40;45.47;99118.97;5052702;28;20348;-77
2023/07/25 01:37:31;;;;;;;;;;;;;;;27.41;43.71;99121.38;5052740;28;19909;-76
2023/07/25 01:39:57;;;;;;;;;;;;;;;27.42;44.19;99122.19;5052556;28;19951;-78
2023/07/25 01:42:22;;;;;;;;;;;;;;;27.47;43.82;99135.66;5052247;28;19909;-78
2023/07/25 01:44:47;;;;;;;;;;;;;;;27.48;44.85;99131.81;5052135;28;19923;-76
2023/07/25 01:47:12;;;;;;;;;;;;;;;27.51;43.52;99125.84;5052258;28;19908;-77
2023/07/25 01:49:38;;;;;;;;;;;;;;;27.52;44.28;99136.38;5052287;28;19909;-76
2023/07/25 01:52:03;;;;;;;;;;;;;;;27.49;45.34;99150.50;5052477;28;19920;-78
2023/07/25 01:54:28;;;;;;;;;;;;;;;27.41;44.59;99137.66;5034020;28;19913;-76
2023/07/25 01:56:53;;;;;;;;;;;;;;;27.11;43.15;99132.75;5034194;28;19952;-78
2023/07/25 01:59:19;;;;;;;;;;;;;;;26.76;45.62;99123.25;5051697;28;20309;-78
2023/07/25 02:01:44;;;;;;;;;;;;;;;26.69;44.28;99130.91;5051958;28;19912;-78
2023/07/25 02:04:09;;;;;;;;;;;;;;;26.68;45.53;99145.56;5051808;28;20022;-78
2023/07/25 02:06:34;;;;;;;;;;;;;;;26.63;43.99;99153.75;5051743;28;20417;-80
2023/07/25 02:09:00;;;;;;;;;;;;;;;26.58;44.63;99149.22;5052375;28;19915;-78
2023/07/25 02:11:25;;;;;;;;;;;;;;;26.57;44.52;99153.84;5034455;28;19919;-78
2023/07/25 02:13:50;;;;;;;;;;;;;;;26.63;45.50;99151.06;5052085;28;20308;-78
2023/07/25 02:16:15;;;;;;;;;;;;;;;26.63;45.67;99143.72;5052031;28;19904;-78
2023/07/25 02:18:41;;;;;;;;;;;;;;;26.61;45.74;99135.09;5051865;28;19908;-78
2023/07/25 02:21:07;;;;;;;;;;;;;;;26.58;45.83;99135.69;5051934;28;19992;-77
2023/07/25 02:23:32;;;;;;;;;;;;;;;26.58;46.49;99141.91;5051908;28;19957;-78
2023/07/25 02:25:57;;;;;;;;;;;;;;;26.56;45.78;99144.09;5051843;28;20319;-78
2023/07/25 02:28:23;;;;;;;;;;;;;;;26.55;46.24;99138.97;5033892;28;19909;-78
2023/07/25 02:30:48;;;;;;;;;;;;;;;26.53;45.31;99157.41;5051757;28;19908;-79
2023/07/25 02:33:14;;;;;;;;;;;;;;;26.53;45.25;99157.41;5033743;28;19916;-77
2023/07/25 02:35:39;;;;;;;;;;;;;;;26.46;45.13;99157.78;5051833;28;19947;-77
2023/07/25 02:38:04;;;;;;;;;;;;;;;26.40;45.22;99155.44;5051810;28;19996;-78
2023/07/25 02:40:29;;;;;;;;;;;;;;;26.36;46.65;99163.34;5033914;28;19908;-78
2023/07/25 02:42:55;;;;;;;;;;;;;;;26.33;46.56;99165.81;5052066;28;19908;-78
2023/07/25 02:45:20;;;;;;;;;;;;;;;26.29;46.31;99165.56;5055530;28;19931;-78
2023/07/25 02:47:45;;;;;;;;;;;;;;;26.25;46.29;99157.22;5038034;28;19920;-78
2023/07/25 02:50:10;;;;;;;;;;;;;;;26.22;45.80;99163.22;5055848;28;19908;-78
2023/07/25 02:52:36;;;;;;;;;;;;;;;26.14;45.40;99163.03;5055651;28;20381;-78
2023/07/25 02:55:01;;;;;;;;;;;;;;;26.05;47.31;99170.19;5055761;28;19963;-78
2023/07/25 02:57:26;;;;;;;;;;;;;;;25.95;47.34;99166.47;5037752;28;20003;-78
2023/07/25 02:59:51;;;;;;;;;;;;;;;25.83;47.62;99163.38;5055439;28;19916;-78
2023/07/25 03:02:17;;;;;;;;;;;;;;;25.75;48.48;99166.69;5055317;28;19947;-78
2023/07/25 03:04:42;;;;;;;;;;;;;;;25.71;48.63;99164.84;5055256;28;19909;-78
2023/07/25 03:07:07;;;;;;;;;;;;;;;25.72;48.49;99171.88;5055582;28;19916;-78
2023/07/25 03:09:32;;;;;;;;;;;;;;;25.65;49.44;99169.47;5055346;28;20362;-77
2023/07/25 03:11:58;;;;;;;;;;;;;;;25.62;47.40;99164.66;5055164;28;19920;-78
2023/07/25 03:14:23;;;;;;;;;;;;;;;25.59;47.76;99167.94;5055073;28;19927;-78
2023/07/25 03:16:48;;;;;;;;;;;;;;;25.66;46.69;99168.44;5055014;28;19909;-78
2023/07/25 03:19:14;;;;;;;;;;;;;;;25.66;46.71;99168.44;5055195;28;20367;-78
2023/07/25 03:21:39;;;;;;;;;;;;;;;25.65;46.80;99174.88;5055108;28;20369;-78
2023/07/25 03:24:04;;;;;;;;;;;;;;;25.64;46.42;99165.97;5037259;28;19952;-77
2023/07/25 03:26:30;;;;;;;;;;;;;;;25.59;48.15;99173.34;5055118;28;20385;-77
2023/07/25 03:28:55;;;;;;;;;;;;;;;25.59;49.42;99173.34;5054983;28;19908;-79
2023/07/25 03:31:20;;;;;;;;;;;;;;;25.58;47.98;99172.53;5054936;28;20296;-78
2023/07/25 03:33:45;;;;;;;;;;;;;;;25.60;48.94;99183.06;5054924;28;19909;-78
2023/07/25 03:36:10;;;;;;;;;;;;;;;25.61;47.93;99180.06;5054967;28;19919;-78
2023/07/25 03:38:36;;;;;;;;;;;;;;;25.64;47.89;99178.69;5054532;28;19935;-78
2023/07/25 03:41:01;;;;;;;;;;;;;;;25.66;49.16;99181.94;5054521;28;19909;-76
2023/07/25 03:43:26;;;;;;;;;;;;;;;25.68;47.49;99187.88;5054348;28;19908;-78
2023/07/25 03:45:52;;;;;;;;;;;;;;;25.71;46.54;99183.78;5054487;28;19938;-76
2023/07/25 03:48:17;;;;;;;;;;;;;;;25.66;47.32;99190.06;5054596;28;19909;-78
2023/07/25 03:50:42;;;;;;;;;;;;;;;25.63;48.44;99196.00;5054504;28;19909;-78
2023/07/25 03:53:07;;;;;;;;;;;;;;;25.58;49.16;99186.03;5054388;28;19913;-78
2023/07/25 03:55:33;;;;;;;;;;;;;;;25.54;48.13;99192.31;5054119;28;19901;-78
2023/07/25 03:57:58;;;;;;;;;;;;;;;25.53;48.86;99193.41;5036453;28;19923;-78
2023/07/25 04:00:23;;;;;;;;;;;;;;;25.46;49.12;99192.91;5054392;28;20278;-76
2023/07/25 04:02:48;;;;;;;;;;;;;;;25.46;47.89;99190.22;5054252;28;19908;-76
2023/07/25 04:05:15;;;;;;;;;;;;;;;25.47;48.78;99183.72;5054504;28;19921;-77
2023/07/25 04:07:40;;;;;;;;;;;;;;;25.49;48.12;99178.84;5054661;28;20388;-78
2023/07/25 04:10:06;;;;;;;;;;;;;;;25.50;48.64;99177.75;5054512;28;19908;-77
2023/07/25 04:12:31;;;;;;;;;;;;;;;25.60;47.68;99169.53;5054448;28;19913;-77
2023/07/25 04:14:56;;;;;;;;;;;;;;;25.66;47.53;99168.44;5054219;28;19935;-78
2023/07/25 04:17:21;;;;;;;;;;;;;;;25.73;48.51;99179.72;5054244;28;20385;-77
2023/07/25 04:19:47;;;;;;;;;;;;;;;25.75;48.94;99177.53;5054151;28;19905;-78
2023/07/25 04:22:12;;;;;;;;;;;;;;;25.79;46.91;99173.16;5053867;28;19966;-78
2023/07/25 04:24:37;;;;;;;;;;;;;;;25.80;48.10;99187.47;5053944;28;19908;-78
2023/07/25 04:27:03;;;;;;;;;;;;;;;25.78;48.57;99179.66;5053838;28;19904;-79
2023/07/25 04:29:28;;;;;;;;;;;;;;;25.79;47.57;99183.97;5035814;28;19913;-77
2023/07/25 04:31:53;;;;;;;;;;;;;;;25.79;47.70;99188.56;5035708;28;19916;-78
2023/07/25 04:34:19;;;;;;;;;;;;;;;25.80;48.21;99185.59;5035936;28;19943;-77
2023/07/25 04:36:44;;;;;;;;;;;;;;;25.78;46.83;99185.06;5053733;28;20408;-78
2023/07/25 04:39:09;;;;;;;;;;;;;;;25.80;48.89;99177.47;5053431;28;19909;-77
2023/07/25 04:41:34;;;;;;;;;;;;;;;25.84;47.92;99180.41;5053306;28;20385;-77
2023/07/25 04:44:00;;;;;;;;;;;;;;;25.89;48.51;99178.44;5053627;28;19909;-78
2023/07/25 04:46:25;;;;;;;;;;;;;;;25.96;48.82;99186.22;5053554;28;20000;-77
2023/07/25 04:48:50;;;;;;;;;;;;;;;26.01;49.04;99174.53;5053541;28;20366;-78
2023/07/25 04:51:15;;;;;;;;;;;;;;;26.08;48.01;99181.25;5053348;28;19947;-78
2023/07/25 04:53:41;;;;;;;;;;;;;;;26.14;47.10;99171.16;5053427;28;20293;-78
2023/07/25 04:56:06;;;;;;;;;;;;;;;26.21;48.60;99171.63;5053960;28;19996;-78
2023/07/25 04:58:31;;;;;;;;;;;;;;;26.18;49.07;99169.50;5035741;28;19924;-79
2023/07/25 05:00:56;;;;;;;;;;;;;;;26.20;47.57;99167.31;5053129;28;19917;-78
2023/07/25 05:03:22;;;;;;;;;;;;;;;26.27;49.21;99167.75;5053379;28;19936;-77
2023/07/25 05:05:50;;;;;;;;;;;;;;;26.30;49.60;99175.28;5053122;28;19909;-76
2023/07/25 05:08:16;;;;;;;;;;;;;;;26.36;47.73;99178.78;5053360;28;19915;-76
2023/07/25 05:10:41;;;;;;;;;;;;;;;26.43;47.97;99171.91;5035319;28;19901;-79
2023/07/25 05:13:06;;;;;;;;;;;;;;;26.53;47.69;99181.78;5053061;28;19955;-78
2023/07/25 05:15:31;;;;;;;;;;;;;;;26.63;47.65;99178.94;5053032;28;20377;-78
2023/07/25 05:17:56;;;;;;;;;;;;;;;26.71;47.46;99172.88;5052898;28;19915;-77
2023/07/25 05:20:22;;;;;;;;;;;;;;;26.80;46.16;99176.56;5052865;28;19908;-77
2023/07/25 05:22:47;;;;;;;;;;;;;;;26.86;46.65;99177.28;5052932;28;19988;-77
2023/07/25 05:25:12;;;;;;;;;;;;;;;26.92;46.19;99176.91;5052592;28;20034;-78
2023/07/25 05:27:37;;;;;;;;;;;;;;;26.96;46.22;99173.63;5052636;28;19912;-77
2023/07/25 05:30:03;;;;;;;;;;;;;;;27.01;46.16;99181.69;5052465;28;19915;-77
2023/07/25 05:32:28;;;;;;;;;;;;;;;27.08;46.18;99182.94;5052688;28;19916;-78
2023/07/25 05:34:53;;;;;;;;;;;;;;;27.19;46.47;99178.94;5034871;28;19909;-78
2023/07/25 05:37:19;;;;;;;;;;;;;;;27.28;45.58;99181.78;5052747;28;19982;-78
2023/07/25 05:39:44;;;;;;;;;;;;;;;27.35;46.43;99178.69;5034616;28;19915;-77
2023/07/25 05:42:09;;;;;;;;;;;;;;;27.42;45.77;99177.22;5047215;28;20003;-76
2023/07/25 05:44:35;;;;;;;;;;;;;;;27.48;45.94;99191.47;5050596;28;19909;-76
2023/07/25 05:47:02;;;;;;;;;;;;;;;27.54;45.66;99184.91;5049776;28;20374;-78
2023/07/25 05:49:28;;;;;;;;;;;;;;;27.60;44.15;99181.00;5036941;28;19935;-78
2023/07/25 05:51:53;;;;;;;;;;;;;;;27.59;45.33;99170.44;5034225;28;20373;-78
2023/07/25 05:54:19;;;;;;;;;;;;;;;27.63;45.02;99161.44;5048483;28;20324;-78
2023/07/25 05:56:44;;;;;;;;;;;;;;;27.70;45.19;99170.00;5047072;28;19913;-77
2023/07/25 05:59:09;;;;;;;;;;;;;;;27.77;45.17;99158.75;5010265;28;19917;-78
2023/07/25 06:01:35;;;;;;;;;;;;;;;27.83;45.54;99160.25;5005995;28;20373;-76
2023/07/25 06:04:00;;;;;;;;;;;;;;;27.88;45.18;99162.06;5011118;28;19905;-77
2023/07/25 06:06:26;;;;;;;;;;;;;;;27.93;45.13;99161.97;5009365;28;19918;-78
2023/07/25 06:08:53;;;;;;;;;;;;;;;27.99;45.08;99163.47;5012383;28;19956;-77
2023/07/25 06:11:21;;;;;;;;;;;;;;;28.02;45.37;99165.56;5010820;28;19913;-77
2023/07/25 06:13:46;;;;;;;;;;;;;;;28.06;44.99;99166.59;5006756;28;19969;-78
2023/07/25 06:16:11;;;;;;;;;;;;;;;28.06;45.73;99167.38;4994203;28;19906;-76
2023/07/25 06:18:37;;;;;;;;;;;;;;;28.07;45.29;99171.72;5004369;28;19916;-75
2023/07/25 06:21:02;;;;;;;;;;;;;;;28.11;45.51;99171.91;5006985;28;20284;-78
2023/07/25 06:23:27;;;;;;;;;;;;;;;28.18;44.45;99159.53;4991109;28;19916;-78
2023/07/25 06:25:52;;;;;;;;;;;;;;;28.22;43.97;99157.03;4999157;28;19916;-78
2023/07/25 06:28:18;;;;;;;;;;;;;;;28.30;44.23;99164.50;5004510;28;19979;-75
2023/07/25 06:30:43;;;;;;;;;;;;;;;28.40;44.13;99163.50;5004532;28;19921;-78
2023/07/25 06:33:08;;;;;;;;;;;;;;;28.47;44.09;99158.44;4992230;28;20347;-76
2023/07/25 06:35:33;;;;;;;;;;;;;;;28.52;43.60;99166.47;5003183;28;19933;-78
2023/07/25 06:37:59;;;;;;;;;;;;;;;28.59;43.66;99166.88;4992215;28;19910;-76
2023/07/25 06:40:24;;;;;;;;;;;;;;;28.64;43.40;99158.59;4992334;28;20413;-78
2023/07/25 06:42:49;;;;;;;;;;;;;;;28.72;42.88;99155.16;4994763;28;19913;-78
2023/07/25 06:45:15;;;;;;;;;;;;;;;28.78;42.46;99144.97;5011551;28;19921;-78
2023/07/25 06:47:40;;;;;;;;;;;;;;;28.83;42.63;99146.75;5010278;28;20402;-77
2023/07/25 06:50:05;;;;;;;;;;;;;;;28.89;42.72;99135.50;5011554;28;19992;-78
2023/07/25 06:52:31;;;;;;;;;;;;;;;28.98;43.17;99138.28;5010838;28;19925;-77
2023/07/25 06:54:57;;;;;;;;;;;;;;;29.06;42.81;99141.09;5010605;28;19914;-78
2023/07/25 06:57:22;;;;;;;;;;;;;;;29.12;41.84;99135.53;5010566;28;19968;-78
2023/07/25 06:59:48;;;;;;;;;;;;;;;29.18;41.81;99135.09;5048904;28;19916;-76
2023/07/25 07:02:13;;;;;;;;;;;;;;;29.25;41.35;99126.47;5049937;28;19920;-78
2023/07/25 07:04:39;;;;;;;;;;;;;;;29.30;41.60;99118.19;5032967;28;19916;-77
2023/07/25 07:07:04;;;;;;;;;;;;;;;29.36;41.26;99115.03;5032366;28;19913;-77
2023/07/25 07:09:29;;;;;;;;;;;;;;;29.41;41.79;99117.63;5032476;28;19912;-78
2023/07/25 07:11:54;;;;;;;;;;;;;;;29.48;41.66;99119.91;5032972;28;19999;-78
2023/07/25 07:14:20;;;;;;;;;;;;;;;29.56;41.07;99104.75;5050059;28;19916;-77
2023/07/25 07:16:45;;;;;;;;;;;;;;;29.60;40.99;99103.00;5051102;28;20003;-78
2023/07/25 07:19:10;;;;;;;;;;;;;;;29.64;40.98;99090.38;5032815;28;19908;-77
2023/07/25 07:21:35;;;;;;;;;;;;;;;29.73;41.64;99091.22;5050352;28;19970;-77
2023/07/25 07:24:01;;;;;;;;;;;;;;;29.82;41.28;99085.81;5051098;28;20397;-78
2023/07/25 07:26:26;;;;;;;;;;;;;;;29.90;40.26;99088.56;5051215;28;19908;-78
2023/07/25 07:28:51;;;;;;;;;;;;;;;29.95;40.45;99088.41;5050164;28;19988;-77
2023/07/25 07:31:23;;;;;;;;;;;;;;;30.04;40.50;99086.53;5036099;28;20066;-78
2023/07/25 07:33:48;;;;;;;;;;;;;;;30.14;40.06;99090.06;5054552;28;19913;-78
2023/07/25 07:36:13;;;;;;;;;;;;;;;30.17;40.48;99084.78;5054535;28;19916;-78
2023/07/25 07:38:38;;;;;;;;;;;;;;;30.21;39.90;99085.75;5054500;28;19909;-77
2023/07/25 07:41:04;;;;;;;;;;;;;;;30.27;40.31;99089.94;5054365;28;20279;-77
2023/07/25 07:43:29;;;;;;;;;;;;;;;30.36;40.14;99093.47;5049433;28;19912;-77
2023/07/25 07:45:56;;;;;;;;;;;;;;;30.46;39.85;99091.53;5050792;28;20000;-76
2023/07/25 07:48:21;;;;;;;;;;;;;;;30.55;39.79;99086.94;5053998;28;19967;-75
2023/07/25 07:50:47;;;;;;;;;;;;;;;30.63;39.37;99086.16;5054649;28;19971;-77
2023/07/25 07:53:12;;;;;;;;;;;;;;;30.71;39.01;99076.38;5034854;28;19916;-77
2023/07/25 07:55:37;;;;;;;;;;;;;;;30.80;39.38;99074.44;5033332;28;19999;-78
2023/07/25 07:58:02;;;;;;;;;;;;;;;30.89;39.38;99073.28;5050350;28;20420;-78
2023/07/25 08:00:27;;;;;;;;;;;;;;;30.97;39.33;99063.50;5054090;28;19920;-77
2023/07/25 08:02:53;;;;;;;;;;;;;;;31.05;38.98;99056.41;5052542;28;19947;-79
2023/07/25 08:05:18;;;;;;;;;;;;;;;31.11;38.94;99055.91;5051099;28;20360;-79
2023/07/25 08:07:43;;;;;;;;;;;;;;;31.16;40.17;99055.78;5047551;28;19916;-79
2023/07/25 08:10:09;;;;;;;;;;;;;;;31.23;39.08;99047.91;5028581;28;19912;-78
2023/07/25 08:12:34;;;;;;;;;;;;;;;31.26;38.85;99043.72;5048481;28;19923;-78
2023/07/25 08:14:59;;;;;;;;;;;;;;;31.31;39.17;99031.84;5048475;28;19959;-77
2023/07/25 08:17:25;;;;;;;;;;;;;;;31.41;39.06;99035.00;5040856;28;19913;-78
2023/07/25 08:19:50;;;;;;;;;;;;;;;31.52;39.00;99030.78;5052247;28;19970;-78
2023/07/25 08:22:15;;;;;;;;;;;;;;;31.62;39.00;99026.88;5052539;28;20318;-77
2023/07/25 08:24:41;;;;;;;;;;;;;;;31.72;38.51;99028.44;5047259;28;19913;-77
2023/07/25 08:27:06;;;;;;;;;;;;;;;31.82;38.59;99017.16;5052515;28;20361;-77
2023/07/25 08:29:32;;;;;;;;;;;;;;;31.89;38.58;99014.69;5043810;28;19912;-78
2023/07/25 08:31:57;;;;;;;;;;;;;;;31.92;38.78;99014.03;5052962;28;19912;-76
2023/07/25 08:34:23;;;;;;;;;;;;;;;32.05;38.50;99007.53;5052714;28;20392;-79
2023/07/25 08:36:48;;;;;;;;;;;;;;;32.14;36.75;99008.25;5053779;28;19971;-78
2023/07/25 08:39:13;;;;;;;;;;;;;;;32.30;36.21;99004.94;5053477;28;20471;-77
2023/07/25 08:42:01;;;;;;;;;;;;;;;32.41;36.92;99008.88;5051216;28;19912;-79
2023/07/25 08:44:27;;;;;;;;;;;;;;;32.08;34.53;98935.06;5030913;28;19995;-77
2023/07/25 08:46:53;;;;;;;;;;;;;;;32.65;35.06;99000.75;5045750;28;20051;-76
2023/07/25 08:49:21;;;;;;;;;;;;;;;32.80;35.62;99008.38;5033444;28;19940;-77
2023/07/25 08:51:47;;;;;;;;;;;;;;;32.96;35.27;99002.25;5030494;28;19929;-78
2023/07/25 08:54:12;;;;;;;;;;;;;;;33.05;33.89;99001.00;5051107;28;19920;-78
2023/07/25 08:56:38;;;;;;;;;;;;;;;33.20;35.41;99005.00;5053957;28;19963;-77
2023/07/25 08:59:04;;;;;;;;;;;;;;;33.31;33.42;99008.13;5033501;28;19916;-77
2023/07/25 09:01:30;;;;;;;;;;;;;;;33.45;34.08;99009.41;5052297;28;19919;-78
2023/07/25 09:03:55;;;;;;;;;;;;;;;33.60;33.73;99005.19;5051769;28;19901;-77
2023/07/25 09:06:21;;;;;;;;;;;;;;;33.72;33.29;99007.09;5053654;28;19966;-77
2023/07/25 09:08:46;;;;;;;;;;;;;;;33.84;33.09;98996.16;5052623;28;20388;-78
2023/07/25 09:11:13;;;;;;;;;;;;;;;34.01;33.61;99003.31;5052880;28;19942;-77
2023/07/25 09:13:38;;;;;;;;;;;;;;;34.17;33.51;99000.63;5053035;28;19923;-80
2023/07/25 09:16:03;;;;;;;;;;;;;;;34.33;34.06;98998.81;5035344;28;20302;-76
2023/07/25 09:18:29;;;;;;;;;;;;;;;34.50;33.78;98995.75;5050799;28;19923;-78
2023/07/25 09:20:54;;;;;;;;;;;;;;;34.67;33.77;98989.94;5033690;28;19963;-76
2023/07/25 09:23:23;;;;;;;;;;;;;;;34.83;33.42;98987.25;5050715;28;19920;-77
2023/07/25 09:25:49;;;;;;;;;;;;;;;35.02;32.71;98990.13;5052872;28;19908;-77
2023/07/25 09:28:14;;;;;;;;;;;;;;;35.20;32.56;98984.28;5050298;28;20421;-77
2023/07/25 09:30:46;;;;;;;;;;;;;;;35.38;33.03;98992.97;5051122;28;19951;-78
2023/07/25 09:33:22;;;;;;;;;;;;;;;35.59;31.17;98972.28;5052575;28;20026;-78
2023/07/25 09:35:48;;;;;;;;;;;;;;;35.79;31.87;98970.41;5050202;28;19912;-78
2023/07/25 09:38:13;;;;;;;;;;;;;;;35.84;32.10;98970.16;5051640;28;19917;-79
2023/07/25 09:40:38;;;;;;;;;;;;;;;35.94;31.70;98961.34;5050214;28;19947;-78
2023/07/25 09:43:03;;;;;;;;;;;;;;;36.04;31.85;98970.94;5052007;28;19915;-79
2023/07/25 09:45:35;;;;;;;;;;;;;;;36.21;31.64;98961.47;5045115;28;20006;-79
2023/07/25 09:48:01;;;;;;;;;;;;;;;36.38;31.57;98958.31;5026108;28;19908;-77
2023/07/25 09:50:32;;;;;;;;;;;;;;;36.48;31.55;98955.00;5050152;28;19942;-78
2023/07/25 09:53:00;;;;;;;;;;;;;;;36.55;31.57;98949.63;5019866;28;19916;-78
2023/07/25 09:55:25;;;;;;;;;;;;;;;36.75;31.38;98942.09;5038949;28;19913;-78
2023/07/25 09:57:51;;;;;;;;;;;;;;;36.81;31.26;98942.63;5051949;28;20438;-78
2023/07/25 10:00:17;;;;;;;;;;;;;;;36.96;31.77;98936.19;5050028;28;19966;-79
2023/07/25 10:02:42;;;;;;;;;;;;;;;37.18;31.58;98929.09;5049571;28;20305;-78
2023/07/25 10:05:08;;;;;;;;;;;;;;;37.37;31.25;98926.25;5014357;28;19916;-79
2023/07/25 10:07:33;;;;;;;;;;;;;;;37.50;31.05;98918.56;5029424;28;19920;-78
2023/07/25 10:09:59;;;;;;;;;;;;;;;37.64;30.96;98926.22;5045914;28;19917;-78
2023/07/25 10:12:24;;;;;;;;;;;;;;;37.69;30.56;98912.94;5045936;28;19920;-78
2023/07/25 10:14:50;;;;;;;;;;;;;;;37.83;30.92;98909.56;5046513;28;19913;-78
2023/07/25 10:17:15;;;;;;;;;;;;;;;37.97;29.91;98901.50;5047598;28;19920;-78
2023/07/25 10:19:48;;;;;;;;;;;;;;;38.14;30.00;98905.63;5042455;28;19936;-78
2023/07/25 10:22:13;;;;;;;;;;;;;;;38.22;29.27;98901.00;5031747;28;19909;-75
2023/07/25 10:24:38;;;;;;;;;;;;;;;38.41;28.38;98893.34;5032036;28;20294;-78
2023/07/25 10:27:08;;;;;;;;;;;;;;;38.40;29.26;98900.03;5044371;28;19993;-76
2023/07/25 10:29:37;;;;;;;;;;;;;;;38.50;28.94;98900.50;5049487;28;19916;-78
2023/07/25 10:32:03;;;;;;;;;;;;;;;38.65;29.21;98900.31;5049503;28;19956;-78
2023/07/25 10:34:44;;;;;;;;;;;;;;;38.75;28.73;98880.28;5042999;28;20013;-77
2023/07/25 10:37:25;;;;;;;;;;;;;;;38.98;28.50;98882.03;5035041;28;19920;-78
2023/07/25 10:40:09;;;;;;;;;;;;;;;39.05;28.50;98888.41;5042854;28;19912;-77
2023/07/25 10:42:49;;;;;;;;;;;;;;;39.29;28.20;98875.16;5028058;28;19919;-78
2023/07/25 10:45:27;;;;;;;;;;;;;;;39.32;28.56;98883.47;5050900;28;19919;-79
2023/07/25 10:47:52;;;;;;;;;;;;;;;39.36;27.36;98877.94;5045661;28;19912;-77
2023/07/25 10:50:19;;;;;;;;;;;;;;;39.43;27.37;98866.97;5051113;28;19919;-78
2023/07/25 10:52:45;;;;;;;;;;;;;;;39.62;26.93;98863.13;5051804;28;20399;-78
2023/07/25 10:55:14;;;;;;;;;;;;;;;39.74;27.69;98850.94;5049374;28;19960;-77
2023/07/25 10:57:40;;;;;;;;;;;;;;;39.79;27.94;98864.38;5051340;28;19917;-76
2023/07/25 11:00:09;;;;;;;;;;;;;;;39.77;26.51;98850.94;5050894;28;19913;-78
2023/07/25 11:02:42;;;;;;;;;;;;;;;39.91;27.01;98839.94;5049552;28;19916;-78
2023/07/25 11:05:13;;;;;;;;;;;;;;;40.11;26.73;98834.88;5053013;28;20309;-78
2023/07/25 11:07:39;;;;;;;;;;;;;;;40.11;27.32;98825.78;5048683;28;19916;-78
2023/07/25 11:10:05;;;;;;;;;;;;;;;40.20;25.97;98815.16;5055103;28;19909;-78
2023/07/25 11:12:31;;;;;;;;;;;;;;;40.24;26.57;98827.78;5036466;28;20305;-77
2023/07/25 11:14:57;;;;;;;;;;;;;;;40.18;26.67;98820.28;5052962;28;19924;-79
2023/07/25 11:17:27;;;;;;;;;;;;;;;40.34;26.94;98815.94;5034223;28;20012;-79
2023/07/25 11:19:52;;;;;;;;;;;;;;;40.52;26.49;98818.75;5038160;28;19913;-77
2023/07/25 11:22:17;;;;;;;;;;;;;;;40.50;26.40;98810.03;5054064;28;20508;-76
2023/07/25 11:24:43;;;;;;;;;;;;;;;40.56;25.99;98804.91;5051288;28;19916;-76
2023/07/25 11:27:09;;;;;;;;;;;;;;;40.62;26.45;98803.31;5051567;28;20290;-77
2023/07/25 11:29:34;;;;;;;;;;;;;;;40.72;26.23;98794.19;5036229;28;19923;-78
2023/07/25 11:32:00;;;;;;;;;;;;;;;40.87;25.81;98795.00;5052112;28;19971;-76
2023/07/25 11:34:26;;;;;;;;;;;;;;;40.91;25.36;98790.28;5051361;28;19943;-77
2023/07/25 11:36:51;;;;;;;;;;;;;;;40.93;26.13;98787.88;5050818;28;20441;-76
2023/07/25 11:39:17;;;;;;;;;;;;;;;41.10;25.56;98789.81;5054558;28;19923;-79
2023/07/25 11:41:44;;;;;;;;;;;;;;;41.26;25.84;98772.78;5050957;28;19912;-79
2023/07/25 11:44:11;;;;;;;;;;;;;;;41.48;25.41;98762.38;5048301;28;19912;-77
2023/07/25 11:46:37;;;;;;;;;;;;;;;41.58;25.19;98772.59;5051516;28;19999;-79
2023/07/25 11:49:03;;;;;;;;;;;;;;;41.62;24.34;98767.91;5054749;28;19915;-78
2023/07/25 11:51:29;;;;;;;;;;;;;;;41.73;24.91;98757.53;5053229;28;19946;-78
2023/07/25 11:53:55;;;;;;;;;;;;;;;41.75;25.20;98757.91;5053258;28;20042;-76
2023/07/25 11:56:20;;;;;;;;;;;;;;;41.73;25.40;98757.53;5050678;28;20301;-78
2023/07/25 11:58:48;;;;;;;;;;;;;;;41.82;24.12;98737.66;5052164;28;20385;-75
2023/07/25 12:01:13;;;;;;;;;;;;;;;41.76;24.72;98731.75;5053145;28;19912;-79
2023/07/25 12:03:44;;;;;;;;;;;;;;;41.85;24.50;98734.88;5052145;28;19995;-78
2023/07/25 12:06:10;;;;;;;;;;;;;;;42.02;23.70;98730.38;5051488;28;19912;-78
2023/07/25 12:08:39;;;;;;;;;;;;;;;42.20;24.84;98728.28;5047750;28;19912;-79
2023/07/25 12:11:14;;;;;;;;;;;;;;;42.21;23.62;98720.75;5048984;28;20008;-78
2023/07/25 12:13:43;;;;;;;;;;;;;;;42.18;24.63;98714.03;5043446;28;20029;-78
2023/07/25 12:16:22;;;;;;;;;;;;;;;42.18;24.81;98711.25;5050405;28;19917;-77
2023/07/25 12:18:50;;;;;;;;;;;;;;;42.18;22.98;98711.25;5051992;28;20042;-78
2023/07/25 12:21:21;;;;;;;;;;;;;;;42.37;22.44;98712.69;5040814;28;19913;-77
2023/07/25 12:23:51;;;;;;;;;;;;;;;42.47;24.23;98711.03;5051964;28;19920;-77
2023/07/25 12:26:20;;;;;;;;;;;;;;;42.53;23.72;98711.38;5053757;28;19912;-79
2023/07/25 12:28:46;;;;;;;;;;;;;;;42.63;23.58;98714.03;5039005;28;19913;-76
2023/07/25 12:31:12;;;;;;;;;;;;;;;42.65;22.68;98703.31;5052676;28;19966;-79
2023/07/25 12:33:37;;;;;;;;;;;;;;;42.78;22.78;98696.00;5052080;28;19917;-77
2023/07/25 12:36:03;;;;;;;;;;;;;;;42.83;22.18;98692.78;5035557;28;20016;-77
2023/07/25 12:38:29;;;;;;;;;;;;;;;42.77;21.78;98690.88;5051023;28;19917;-79
2023/07/25 12:40:54;;;;;;;;;;;;;;;42.83;23.36;98697.53;5050379;28;19961;-77